sensor_id;sensor_type;location;lat;lon;timestamp;pressure;altitude;pressure_sealevel;temperature;humidity
25722;BME280;13578;53.450;15.496;2022-09-01T00:01:49;100618.91;;;11.86;100.00
25722;BME280;13578;53.450;15.496;2022-09-01T00:04:49;100616.38;;;11.83;100.00
25722;BME280;13578;53.450;15.496;2022-09-01T00:07:52;100614.63;;;11.82;100.00
25722;BME280;13578;53.450;15.496;2022-09-01T00:10:52;100618.78;;;11.76;100.00
25722;BME280;13578;53.450;15.496;2022-09-01T00:13:54;100623.91;;;11.81;100.00
25722;BME280;13578;53.450;15.496;2022-09-01T00:17:00;100626.53;;;11.83;100.00
25722;BME280;13578;53.450;15.496;2022-09-01T00:20:02;100626.91;;;11.78;100.00
25722;BME280;13578;53.450;15.496;2022-09-01T00:23:03;100627.28;;;11.73;100.00
25722;BME280;13578;53.450;15.496;2022-09-01T00:26:04;100617.28;;;11.72;100.00
25722;BME280;13578;53.450;15.496;2022-09-01T00:29:05;100627.53;;;11.59;100.00
25722;BME280;13578;53.450;15.496;2022-09-01T00:32:06;100631.03;;;11.61;100.00
25722;BME280;13578;53.450;15.496;2022-09-01T00:35:07;100622.41;;;11.54;100.00
25722;BME280;13578;53.450;15.496;2022-09-01T00:38:08;100623.28;;;11.55;100.00
25722;BME280;13578;53.450;15.496;2022-09-01T00:41:09;100612.19;;;11.45;100.00
25722;BME280;13578;53.450;15.496;2022-09-01T00:44:13;100618.66;;;11.44;100.00
25722;BME280;13578;53.450;15.496;2022-09-01T00:47:15;100612.28;;;11.32;100.00
25722;BME280;13578;53.450;15.496;2022-09-01T00:50:17;100631.25;;;11.24;100.00
25722;BME280;13578;53.450;15.496;2022-09-01T00:53:18;100622.09;;;11.12;100.00
25722;BME280;13578;53.450;15.496;2022-09-01T00:56:18;100620.22;;;11.01;100.00
25722;BME280;13578;53.450;15.496;2022-09-01T00:59:21;100617.69;;;10.98;100.00
25722;BME280;13578;53.450;15.496;2022-09-01T01:02:24;100598.34;;;10.88;100.00
25722;BME280;13578;53.450;15.496;2022-09-01T01:05:29;100614.31;;;10.94;100.00
25722;BME280;13578;53.450;15.496;2022-09-01T01:08:36;100618.44;;;10.89;100.00
25722;BME280;13578;53.450;15.496;2022-09-01T01:11:38;100602.56;;;10.81;100.00
25722;BME280;13578;53.450;15.496;2022-09-01T01:14:39;100604.56;;;10.79;100.00
25722;BME280;13578;53.450;15.496;2022-09-01T01:17:40;100608.94;;;10.82;100.00
25722;BME280;13578;53.450;15.496;2022-09-01T01:20:41;100616.19;;;10.83;100.00
25722;BME280;13578;53.450;15.496;2022-09-01T01:27:08;100615.16;;;10.84;100.00
25722;BME280;13578;53.450;15.496;2022-09-01T01:30:11;100609.56;;;10.85;100.00
25722;BME280;13578;53.450;15.496;2022-09-01T01:33:12;100609.09;;;10.91;100.00
25722;BME280;13578;53.450;15.496;2022-09-01T01:36:16;100619.44;;;10.88;100.00
25722;BME280;13578;53.450;15.496;2022-09-01T01:39:21;100615.94;;;10.86;100.00
25722;BME280;13578;53.450;15.496;2022-09-01T01:42:24;100614.44;;;10.82;100.00
25722;BME280;13578;53.450;15.496;2022-09-01T01:45:26;100605.03;;;10.73;100.00
25722;BME280;13578;53.450;15.496;2022-09-01T01:48:28;100615.13;;;10.61;100.00
25722;BME280;13578;53.450;15.496;2022-09-01T01:51:33;100624.69;;;10.55;100.00
25722;BME280;13578;53.450;15.496;2022-09-01T01:54:35;100622.50;;;10.47;100.00
25722;BME280;13578;53.450;15.496;2022-09-01T01:57:38;100613.13;;;10.39;100.00
25722;BME280;13578;53.450;15.496;2022-09-01T02:00:38;100617.75;;;10.38;100.00
25722;BME280;13578;53.450;15.496;2022-09-01T02:03:39;100614.44;;;10.33;100.00
25722;BME280;13578;53.450;15.496;2022-09-01T02:06:40;100602.19;;;10.26;100.00
25722;BME280;13578;53.450;15.496;2022-09-01T02:09:44;100606.03;;;10.23;100.00
25722;BME280;13578;53.450;15.496;2022-09-01T02:12:47;100608.91;;;10.22;100.00
25722;BME280;13578;53.450;15.496;2022-09-01T02:15:53;100613.16;;;10.26;100.00
25722;BME280;13578;53.450;15.496;2022-09-01T02:18:54;100609.41;;;10.27;100.00
25722;BME280;13578;53.450;15.496;2022-09-01T02:21:55;100616.03;;;10.24;100.00
25722;BME280;13578;53.450;15.496;2022-09-01T02:24:58;100615.25;;;10.22;100.00
25722;BME280;13578;53.450;15.496;2022-09-01T02:28:01;100619.09;;;10.20;100.00
25722;BME280;13578;53.450;15.496;2022-09-01T02:31:04;100609.25;;;10.17;100.00
25722;BME280;13578;53.450;15.496;2022-09-01T02:34:08;100614.72;;;10.17;100.00
25722;BME280;13578;53.450;15.496;2022-09-01T02:37:10;100609.59;;;10.12;100.00
25722;BME280;13578;53.450;15.496;2022-09-01T02:40:11;100604.44;;;10.08;100.00
25722;BME280;13578;53.450;15.496;2022-09-01T02:43:14;100598.22;;;10.06;100.00
25722;BME280;13578;53.450;15.496;2022-09-01T02:46:20;100597.59;;;10.02;100.00
25722;BME280;13578;53.450;15.496;2022-09-01T02:49:22;100596.28;;;9.95;100.00
25722;BME280;13578;53.450;15.496;2022-09-01T02:52:25;100594.75;;;9.91;100.00
25722;BME280;13578;53.450;15.496;2022-09-01T02:55:26;100592.00;;;9.91;100.00
25722;BME280;13578;53.450;15.496;2022-09-01T02:58:28;100595.22;;;9.84;100.00
25722;BME280;13578;53.450;15.496;2022-09-01T03:01:32;100592.03;;;9.78;100.00
25722;BME280;13578;53.450;15.496;2022-09-01T03:04:33;100597.97;;;9.72;100.00
25722;BME280;13578;53.450;15.496;2022-09-01T03:07:34;100606.44;;;9.68;100.00
25722;BME280;13578;53.450;15.496;2022-09-01T03:10:38;100607.66;;;9.64;100.00
25722;BME280;13578;53.450;15.496;2022-09-01T03:13:41;100597.03;;;9.60;100.00
25722;BME280;13578;53.450;15.496;2022-09-01T03:16:42;100603.06;;;9.52;100.00
25722;BME280;13578;53.450;15.496;2022-09-01T03:19:43;100599.56;;;9.50;100.00
25722;BME280;13578;53.450;15.496;2022-09-01T03:22:45;100589.59;;;9.49;100.00
25722;BME280;13578;53.450;15.496;2022-09-01T03:25:47;100596.38;;;9.56;100.00
25722;BME280;13578;53.450;15.496;2022-09-01T03:28:49;100591.13;;;9.53;100.00
25722;BME280;13578;53.450;15.496;2022-09-01T03:31:50;100594.09;;;9.50;100.00
25722;BME280;13578;53.450;15.496;2022-09-01T03:34:50;100590.47;;;9.49;100.00
25722;BME280;13578;53.450;15.496;2022-09-01T03:37:51;100602.44;;;9.48;100.00
25722;BME280;13578;53.450;15.496;2022-09-01T03:40:54;100594.41;;;9.45;100.00
25722;BME280;13578;53.450;15.496;2022-09-01T03:43:58;100595.41;;;9.44;100.00
25722;BME280;13578;53.450;15.496;2022-09-01T03:46:59;100590.56;;;9.48;100.00
25722;BME280;13578;53.450;15.496;2022-09-01T03:50:00;100590.56;;;9.48;100.00
25722;BME280;13578;53.450;15.496;2022-09-01T03:53:01;100589.06;;;9.44;100.00
25722;BME280;13578;53.450;15.496;2022-09-01T03:56:02;100583.69;;;9.42;100.00
25722;BME280;13578;53.450;15.496;2022-09-01T03:59:03;100584.09;;;9.49;100.00
25722;BME280;13578;53.450;15.496;2022-09-01T04:02:04;100577.44;;;9.53;100.00
25722;BME280;13578;53.450;15.496;2022-09-01T04:05:05;100570.72;;;9.57;100.00
25722;BME280;13578;53.450;15.496;2022-09-01T04:08:07;100557.78;;;9.59;100.00
25722;BME280;13578;53.450;15.496;2022-09-01T04:11:13;100571.38;;;9.61;100.00
25722;BME280;13578;53.450;15.496;2022-09-01T04:14:16;100574.44;;;9.56;100.00
25722;BME280;13578;53.450;15.496;2022-09-01T04:17:17;100577.09;;;9.45;100.00
25722;BME280;13578;53.450;15.496;2022-09-01T04:20:40;100574.84;;;9.26;100.00
25722;BME280;13578;53.450;15.496;2022-09-01T04:23:50;100574.72;;;9.27;100.00
25722;BME280;13578;53.450;15.496;2022-09-01T04:26:51;100575.69;;;9.26;100.00
25722;BME280;13578;53.450;15.496;2022-09-01T04:29:52;100579.22;;;9.28;100.00
25722;BME280;13578;53.450;15.496;2022-09-01T04:32:52;100590.28;;;9.40;100.00
25722;BME280;13578;53.450;15.496;2022-09-01T04:35:55;100592.31;;;9.49;100.00
25722;BME280;13578;53.450;15.496;2022-09-01T04:38:58;100585.69;;;9.77;100.00
25722;BME280;13578;53.450;15.496;2022-09-01T04:41:59;100588.13;;;10.06;100.00
25722;BME280;13578;53.450;15.496;2022-09-01T04:45:08;100593.44;;;10.21;100.00
25722;BME280;13578;53.450;15.496;2022-09-01T04:48:10;100602.31;;;10.24;100.00
25722;BME280;13578;53.450;15.496;2022-09-01T04:51:11;100580.13;;;10.27;100.00
25722;BME280;13578;53.450;15.496;2022-09-01T04:54:14;100592.47;;;10.33;100.00
25722;BME280;13578;53.450;15.496;2022-09-01T04:57:15;100591.50;;;10.34;100.00
25722;BME280;13578;53.450;15.496;2022-09-01T05:00:18;100603.22;;;10.49;100.00
25722;BME280;13578;53.450;15.496;2022-09-01T05:03:22;100585.16;;;10.58;100.00
25722;BME280;13578;53.450;15.496;2022-09-01T05:06:23;100587.47;;;10.75;100.00
25722;BME280;13578;53.450;15.496;2022-09-01T05:09:24;100594.84;;;10.86;100.00
25722;BME280;13578;53.450;15.496;2022-09-01T05:12:25;100589.09;;;10.89;100.00
25722;BME280;13578;53.450;15.496;2022-09-01T05:15:26;100594.09;;;10.95;100.00
25722;BME280;13578;53.450;15.496;2022-09-01T05:18:27;100596.63;;;10.99;100.00
25722;BME280;13578;53.450;15.496;2022-09-01T05:21:28;100598.88;;;11.05;100.00
25722;BME280;13578;53.450;15.496;2022-09-01T05:24:29;100591.75;;;11.13;100.00
25722;BME280;13578;53.450;15.496;2022-09-01T05:27:31;100595.41;;;11.25;100.00
25722;BME280;13578;53.450;15.496;2022-09-01T05:30:32;100587.81;;;11.40;100.00
25722;BME280;13578;53.450;15.496;2022-09-01T05:33:35;100585.81;;;11.54;100.00
25722;BME280;13578;53.450;15.496;2022-09-01T05:36:43;100596.28;;;11.71;100.00
25722;BME280;13578;53.450;15.496;2022-09-01T05:39:45;100599.88;;;11.83;100.00
25722;BME280;13578;53.450;15.496;2022-09-01T05:42:45;100603.63;;;11.94;100.00
25722;BME280;13578;53.450;15.496;2022-09-01T05:45:47;100595.78;;;12.00;100.00
25722;BME280;13578;53.450;15.496;2022-09-01T05:48:50;100585.75;;;12.11;100.00
25722;BME280;13578;53.450;15.496;2022-09-01T05:51:52;100583.06;;;12.20;100.00
25722;BME280;13578;53.450;15.496;2022-09-01T05:54:58;100590.94;;;12.36;100.00
25722;BME280;13578;53.450;15.496;2022-09-01T05:58:00;100582.34;;;12.51;100.00
25722;BME280;13578;53.450;15.496;2022-09-01T06:01:00;100586.78;;;12.63;100.00
25722;BME280;13578;53.450;15.496;2022-09-01T06:04:01;100577.34;;;12.77;100.00
25722;BME280;13578;53.450;15.496;2022-09-01T06:07:04;100581.63;;;12.91;100.00
25722;BME280;13578;53.450;15.496;2022-09-01T06:10:08;100587.69;;;13.06;100.00
25722;BME280;13578;53.450;15.496;2022-09-01T06:13:09;100581.09;;;13.18;100.00
25722;BME280;13578;53.450;15.496;2022-09-01T06:16:10;100590.16;;;13.30;100.00
25722;BME280;13578;53.450;15.496;2022-09-01T06:19:11;100590.75;;;13.34;100.00
25722;BME280;13578;53.450;15.496;2022-09-01T06:22:12;100592.72;;;13.43;100.00
25722;BME280;13578;53.450;15.496;2022-09-01T06:25:14;100600.13;;;13.53;100.00
25722;BME280;13578;53.450;15.496;2022-09-01T06:28:17;100594.53;;;13.64;100.00
25722;BME280;13578;53.450;15.496;2022-09-01T06:31:25;100607.53;;;13.83;100.00
25722;BME280;13578;53.450;15.496;2022-09-01T06:34:26;100607.44;;;14.04;100.00
25722;BME280;13578;53.450;15.496;2022-09-01T06:37:26;100617.50;;;14.25;100.00
25722;BME280;13578;53.450;15.496;2022-09-01T06:40:28;100612.88;;;14.45;100.00
25722;BME280;13578;53.450;15.496;2022-09-01T06:43:29;100621.34;;;14.63;100.00
25722;BME280;13578;53.450;15.496;2022-09-01T06:46:31;100618.31;;;14.66;100.00
25722;BME280;13578;53.450;15.496;2022-09-01T06:49:33;100600.59;;;14.69;100.00
25722;BME280;13578;53.450;15.496;2022-09-01T06:52:35;100601.31;;;14.81;100.00
25722;BME280;13578;53.450;15.496;2022-09-01T06:55:39;100595.47;;;14.93;100.00
25722;BME280;13578;53.450;15.496;2022-09-01T06:58:42;100598.81;;;14.97;100.00
25722;BME280;13578;53.450;15.496;2022-09-01T07:01:46;100601.38;;;15.18;100.00
25722;BME280;13578;53.450;15.496;2022-09-01T07:04:48;100595.94;;;15.36;100.00
25722;BME280;13578;53.450;15.496;2022-09-01T07:07:51;100590.69;;;15.43;100.00
25722;BME280;13578;53.450;15.496;2022-09-01T07:10:54;100607.22;;;15.63;100.00
25722;BME280;13578;53.450;15.496;2022-09-01T07:14:03;100605.53;;;15.80;100.00
25722;BME280;13578;53.450;15.496;2022-09-01T07:17:04;100605.53;;;15.90;100.00
25722;BME280;13578;53.450;15.496;2022-09-01T07:20:07;100602.41;;;16.02;100.00
25722;BME280;13578;53.450;15.496;2022-09-01T07:23:09;100597.84;;;16.11;100.00
25722;BME280;13578;53.450;15.496;2022-09-01T07:26:11;100597.88;;;16.29;100.00
25722;BME280;13578;53.450;15.496;2022-09-01T07:29:17;100594.94;;;16.49;100.00
25722;BME280;13578;53.450;15.496;2022-09-01T07:32:19;100601.75;;;16.73;100.00
25722;BME280;13578;53.450;15.496;2022-09-01T07:35:20;100598.56;;;17.04;100.00
25722;BME280;13578;53.450;15.496;2022-09-01T07:38:23;100603.94;;;17.23;100.00
25722;BME280;13578;53.450;15.496;2022-09-01T07:41:25;100615.84;;;17.42;100.00
25722;BME280;13578;53.450;15.496;2022-09-01T07:44:26;100608.47;;;17.59;100.00
25722;BME280;13578;53.450;15.496;2022-09-01T07:47:27;100609.56;;;17.66;100.00
25722;BME280;13578;53.450;15.496;2022-09-01T07:50:29;100612.19;;;17.68;100.00
25722;BME280;13578;53.450;15.496;2022-09-01T07:53:32;100616.94;;;17.49;100.00
25722;BME280;13578;53.450;15.496;2022-09-01T07:56:33;100620.34;;;17.43;100.00
25722;BME280;13578;53.450;15.496;2022-09-01T07:59:34;100621.50;;;17.32;100.00
25722;BME280;13578;53.450;15.496;2022-09-01T08:02:36;100628.19;;;17.21;100.00
25722;BME280;13578;53.450;15.496;2022-09-01T08:05:38;100631.19;;;17.54;100.00
25722;BME280;13578;53.450;15.496;2022-09-01T08:08:39;100634.53;;;17.66;100.00
25722;BME280;13578;53.450;15.496;2022-09-01T08:11:40;100639.84;;;17.51;100.00
25722;BME280;13578;53.450;15.496;2022-09-01T08:14:41;100656.03;;;16.93;100.00
25722;BME280;13578;53.450;15.496;2022-09-01T08:17:43;100653.53;;;16.54;100.00
25722;BME280;13578;53.450;15.496;2022-09-01T08:20:43;100653.97;;;15.66;100.00
25722;BME280;13578;53.450;15.496;2022-09-01T08:23:48;100658.81;;;15.54;100.00
25722;BME280;13578;53.450;15.496;2022-09-01T08:26:49;100662.91;;;15.30;100.00
25722;BME280;13578;53.450;15.496;2022-09-01T08:29:49;100655.84;;;15.08;100.00
25722;BME280;13578;53.450;15.496;2022-09-01T08:32:50;100660.19;;;15.11;100.00
25722;BME280;13578;53.450;15.496;2022-09-01T08:35:51;100669.66;;;15.08;100.00
25722;BME280;13578;53.450;15.496;2022-09-01T08:38:52;100665.41;;;15.14;100.00
25722;BME280;13578;53.450;15.496;2022-09-01T08:45:49;100682.88;;;14.85;100.00
25722;BME280;13578;53.450;15.496;2022-09-01T08:48:55;100679.25;;;14.74;100.00
25722;BME280;13578;53.450;15.496;2022-09-01T08:52:05;100674.41;;;14.57;100.00
25722;BME280;13578;53.450;15.496;2022-09-01T08:55:17;100678.91;;;14.58;100.00
25722;BME280;13578;53.450;15.496;2022-09-01T08:58:28;100676.34;;;14.66;100.00
25722;BME280;13578;53.450;15.496;2022-09-01T09:01:38;100681.00;;;14.75;100.00
25722;BME280;13578;53.450;15.496;2022-09-01T09:04:57;100670.38;;;15.00;100.00
25722;BME280;13578;53.450;15.496;2022-09-01T09:14:40;100646.53;;;15.66;100.00
25722;BME280;13578;53.450;15.496;2022-09-01T09:17:58;100652.00;;;15.76;100.00
25722;BME280;13578;53.450;15.496;2022-09-01T09:21:26;100647.53;;;15.85;100.00
25722;BME280;13578;53.450;15.496;2022-09-01T09:24:31;100640.91;;;15.96;100.00
25722;BME280;13578;53.450;15.496;2022-09-01T09:27:51;100643.78;;;16.04;100.00
25722;BME280;13578;53.450;15.496;2022-09-01T09:31:28;100638.09;;;16.06;100.00
25722;BME280;13578;53.450;15.496;2022-09-01T09:37:32;100632.59;;;15.96;100.00
25722;BME280;13578;53.450;15.496;2022-09-01T09:40:33;100639.84;;;16.07;100.00
25722;BME280;13578;53.450;15.496;2022-09-01T09:43:57;100636.66;;;16.29;100.00
25722;BME280;13578;53.450;15.496;2022-09-01T09:46:58;100641.75;;;16.52;100.00
25722;BME280;13578;53.450;15.496;2022-09-01T09:50:11;100639.19;;;16.41;100.00
25722;BME280;13578;53.450;15.496;2022-09-01T09:56:25;100641.34;;;16.65;100.00
25722;BME280;13578;53.450;15.496;2022-09-01T09:59:28;100637.78;;;16.73;100.00
25722;BME280;13578;53.450;15.496;2022-09-01T10:02:39;100640.47;;;16.82;100.00
25722;BME280;13578;53.450;15.496;2022-09-01T10:05:42;100642.78;;;16.69;100.00
25722;BME280;13578;53.450;15.496;2022-09-01T10:08:44;100641.25;;;16.75;100.00
25722;BME280;13578;53.450;15.496;2022-09-01T10:11:51;100634.56;;;17.13;100.00
25722;BME280;13578;53.450;15.496;2022-09-01T10:14:57;100631.94;;;17.38;100.00
25722;BME280;13578;53.450;15.496;2022-09-01T10:18:16;100630.75;;;17.41;100.00
25722;BME280;13578;53.450;15.496;2022-09-01T10:21:24;100632.66;;;17.40;100.00
25722;BME280;13578;53.450;15.496;2022-09-01T10:24:34;100620.72;;;17.48;100.00
25722;BME280;13578;53.450;15.496;2022-09-01T10:27:39;100628.44;;;17.62;100.00
25722;BME280;13578;53.450;15.496;2022-09-01T10:30:43;100627.88;;;17.85;100.00
25722;BME280;13578;53.450;15.496;2022-09-01T10:33:45;100626.53;;;17.89;100.00
25722;BME280;13578;53.450;15.496;2022-09-01T10:36:47;100624.38;;;17.75;100.00
25722;BME280;13578;53.450;15.496;2022-09-01T10:40:56;100637.38;;;17.74;100.00
25722;BME280;13578;53.450;15.496;2022-09-01T10:43:48;100632.44;;;17.94;100.00
25722;BME280;13578;53.450;15.496;2022-09-01T10:46:50;100636.22;;;17.85;100.00
25722;BME280;13578;53.450;15.496;2022-09-01T10:53:00;100633.78;;;17.82;100.00
25722;BME280;13578;53.450;15.496;2022-09-01T10:56:23;100634.16;;;17.61;100.00
25722;BME280;13578;53.450;15.496;2022-09-01T10:59:28;100625.97;;;17.25;100.00
25722;BME280;13578;53.450;15.496;2022-09-01T11:02:28;100624.94;;;17.52;100.00
25722;BME280;13578;53.450;15.496;2022-09-01T11:09:01;100634.34;;;18.29;100.00
25722;BME280;13578;53.450;15.496;2022-09-01T11:15:38;100635.50;;;18.77;100.00
25722;BME280;13578;53.450;15.496;2022-09-01T11:18:39;100636.34;;;18.53;100.00
25722;BME280;13578;53.450;15.496;2022-09-01T11:21:41;100630.25;;;18.49;100.00
25722;BME280;13578;53.450;15.496;2022-09-01T11:34:19;100639.84;;;18.80;100.00
25722;BME280;13578;53.450;15.496;2022-09-01T11:37:23;100629.06;;;18.68;100.00
25722;BME280;13578;53.450;15.496;2022-09-01T11:40:29;100621.50;;;18.28;100.00
25722;BME280;13578;53.450;15.496;2022-09-01T11:43:30;100626.00;;;18.29;100.00
25722;BME280;13578;53.450;15.496;2022-09-01T11:46:33;100638.03;;;18.37;100.00
25722;BME280;13578;53.450;15.496;2022-09-01T11:49:44;100631.06;;;18.33;100.00
25722;BME280;13578;53.450;15.496;2022-09-01T11:52:58;100629.84;;;18.36;100.00
25722;BME280;13578;53.450;15.496;2022-09-01T11:56:14;100630.56;;;18.46;100.00
25722;BME280;13578;53.450;15.496;2022-09-01T11:59:29;100630.16;;;18.92;100.00
25722;BME280;13578;53.450;15.496;2022-09-01T12:02:33;100626.47;;;19.41;100.00
25722;BME280;13578;53.450;15.496;2022-09-01T12:05:36;100626.47;;;19.41;100.00
25722;BME280;13578;53.450;15.496;2022-09-01T12:08:40;100624.41;;;19.18;100.00
25722;BME280;13578;53.450;15.496;2022-09-01T12:11:41;100613.47;;;19.25;100.00
25722;BME280;13578;53.450;15.496;2022-09-01T12:15:04;100620.06;;;19.41;100.00
25722;BME280;13578;53.450;15.496;2022-09-01T12:24:37;100608.34;;;19.53;100.00
25722;BME280;13578;53.450;15.496;2022-09-01T12:27:38;100603.75;;;19.04;100.00
25722;BME280;13578;53.450;15.496;2022-09-01T12:30:39;100604.56;;;18.80;100.00
25722;BME280;13578;53.450;15.496;2022-09-01T12:33:44;100604.19;;;18.50;100.00
25722;BME280;13578;53.450;15.496;2022-09-01T12:37:03;100601.63;;;18.73;100.00
25722;BME280;13578;53.450;15.496;2022-09-01T12:40:04;100596.59;;;18.85;100.00
25722;BME280;13578;53.450;15.496;2022-09-01T12:43:05;100605.25;;;18.57;100.00
25722;BME280;13578;53.450;15.496;2022-09-01T12:46:06;100592.91;;;18.52;100.00
25722;BME280;13578;53.450;15.496;2022-09-01T12:49:40;100593.94;;;18.51;100.00
25722;BME280;13578;53.450;15.496;2022-09-01T12:52:47;100597.97;;;18.89;100.00
25722;BME280;13578;53.450;15.496;2022-09-01T12:56:14;100593.09;;;18.83;100.00
25722;BME280;13578;53.450;15.496;2022-09-01T12:59:23;100593.78;;;18.69;100.00
25722;BME280;13578;53.450;15.496;2022-09-01T13:02:33;100601.69;;;18.31;100.00
25722;BME280;13578;53.450;15.496;2022-09-01T13:08:40;100590.91;;;18.19;100.00
25722;BME280;13578;53.450;15.496;2022-09-01T13:11:42;100597.53;;;18.27;100.00
25722;BME280;13578;53.450;15.496;2022-09-01T13:14:43;100587.03;;;18.04;100.00
25722;BME280;13578;53.450;15.496;2022-09-01T13:17:44;100594.06;;;18.24;100.00
25722;BME280;13578;53.450;15.496;2022-09-01T13:20:45;100590.53;;;18.14;100.00
25722;BME280;13578;53.450;15.496;2022-09-01T13:23:45;100590.53;;;18.06;100.00
25722;BME280;13578;53.450;15.496;2022-09-01T13:26:46;100584.59;;;18.01;100.00
25722;BME280;13578;53.450;15.496;2022-09-01T13:29:53;100597.97;;;18.05;100.00
25722;BME280;13578;53.450;15.496;2022-09-01T13:32:55;100593.47;;;18.04;100.00
25722;BME280;13578;53.450;15.496;2022-09-01T13:35:57;100602.31;;;18.08;100.00
25722;BME280;13578;53.450;15.496;2022-09-01T13:38:57;100597.63;;;18.00;100.00
25722;BME280;13578;53.450;15.496;2022-09-01T13:41:58;100593.34;;;17.80;100.00
25722;BME280;13578;53.450;15.496;2022-09-01T13:44:59;100594.16;;;17.72;100.00
25722;BME280;13578;53.450;15.496;2022-09-01T13:48:00;100593.13;;;17.73;100.00
25722;BME280;13578;53.450;15.496;2022-09-01T13:51:02;100593.44;;;17.61;100.00
25722;BME280;13578;53.450;15.496;2022-09-01T13:54:03;100594.50;;;17.69;100.00
25722;BME280;13578;53.450;15.496;2022-09-01T13:57:04;100584.16;;;17.87;100.00
25722;BME280;13578;53.450;15.496;2022-09-01T14:00:07;100586.44;;;17.92;100.00
25722;BME280;13578;53.450;15.496;2022-09-01T14:03:16;100585.31;;;18.03;100.00
25722;BME280;13578;53.450;15.496;2022-09-01T14:06:17;100595.91;;;18.07;100.00
25722;BME280;13578;53.450;15.496;2022-09-01T14:09:18;100588.19;;;17.93;100.00
25722;BME280;13578;53.450;15.496;2022-09-01T14:12:18;100589.22;;;17.92;100.00
25722;BME280;13578;53.450;15.496;2022-09-01T14:15:20;100593.41;;;17.96;100.00
25722;BME280;13578;53.450;15.496;2022-09-01T14:18:22;100591.09;;;18.26;100.00
25722;BME280;13578;53.450;15.496;2022-09-01T14:21:22;100587.69;;;18.57;100.00
25722;BME280;13578;53.450;15.496;2022-09-01T14:24:23;100588.94;;;18.71;100.00
25722;BME280;13578;53.450;15.496;2022-09-01T14:27:26;100585.28;;;18.79;100.00
25722;BME280;13578;53.450;15.496;2022-09-01T14:30:29;100571.72;;;18.67;100.00
25722;BME280;13578;53.450;15.496;2022-09-01T14:33:30;100588.03;;;18.62;100.00
25722;BME280;13578;53.450;15.496;2022-09-01T14:36:31;100580.38;;;18.56;100.00
25722;BME280;13578;53.450;15.496;2022-09-01T14:39:32;100576.06;;;18.70;100.00
25722;BME280;13578;53.450;15.496;2022-09-01T14:42:33;100573.63;;;18.75;100.00
25722;BME280;13578;53.450;15.496;2022-09-01T14:45:36;100563.91;;;18.71;100.00
25722;BME280;13578;53.450;15.496;2022-09-01T14:48:40;100564.25;;;18.84;100.00
25722;BME280;13578;53.450;15.496;2022-09-01T14:51:42;100570.84;;;18.83;100.00
25722;BME280;13578;53.450;15.496;2022-09-01T14:54:44;100569.28;;;18.72;100.00
25722;BME280;13578;53.450;15.496;2022-09-01T14:57:44;100556.94;;;18.75;100.00
25722;BME280;13578;53.450;15.496;2022-09-01T15:00:45;100551.38;;;18.67;100.00
25722;BME280;13578;53.450;15.496;2022-09-01T15:03:46;100550.00;;;18.79;100.00
25722;BME280;13578;53.450;15.496;2022-09-01T15:06:47;100534.72;;;18.75;100.00
25722;BME280;13578;53.450;15.496;2022-09-01T15:09:48;100532.63;;;18.77;100.00
25722;BME280;13578;53.450;15.496;2022-09-01T15:12:49;100534.53;;;18.85;100.00
25722;BME280;13578;53.450;15.496;2022-09-01T15:15:50;100532.97;;;18.82;100.00
25722;BME280;13578;53.450;15.496;2022-09-01T15:18:52;100535.41;;;18.52;100.00
25722;BME280;13578;53.450;15.496;2022-09-01T15:21:54;100534.03;;;18.65;100.00
25722;BME280;13578;53.450;15.496;2022-09-01T15:24:55;100539.75;;;18.80;100.00
25722;BME280;13578;53.450;15.496;2022-09-01T15:27:56;100544.78;;;18.68;100.00
25722;BME280;13578;53.450;15.496;2022-09-01T15:30:56;100540.63;;;18.72;100.00
25722;BME280;13578;53.450;15.496;2022-09-01T15:34:01;100546.69;;;18.84;100.00
25722;BME280;13578;53.450;15.496;2022-09-01T15:37:03;100543.41;;;18.97;100.00
25722;BME280;13578;53.450;15.496;2022-09-01T15:40:05;100542.19;;;19.16;100.00
25722;BME280;13578;53.450;15.496;2022-09-01T15:43:07;100549.31;;;18.61;100.00
25722;BME280;13578;53.450;15.496;2022-09-01T15:46:07;100540.56;;;18.22;100.00
25722;BME280;13578;53.450;15.496;2022-09-01T15:49:09;100540.50;;;17.98;100.00
25722;BME280;13578;53.450;15.496;2022-09-01T15:52:10;100553.16;;;17.57;100.00
25722;BME280;13578;53.450;15.496;2022-09-01T15:55:10;100544.59;;;17.16;100.00
25722;BME280;13578;53.450;15.496;2022-09-01T15:58:13;100536.78;;;17.11;100.00
25722;BME280;13578;53.450;15.496;2022-09-01T16:01:15;100539.50;;;16.85;100.00
25722;BME280;13578;53.450;15.496;2022-09-01T16:04:15;100539.13;;;16.80;100.00
25722;BME280;13578;53.450;15.496;2022-09-01T16:07:16;100539.78;;;16.74;100.00
25722;BME280;13578;53.450;15.496;2022-09-01T16:10:17;100543.47;;;16.82;100.00
25722;BME280;13578;53.450;15.496;2022-09-01T16:13:17;100547.91;;;16.93;100.00
25722;BME280;13578;53.450;15.496;2022-09-01T16:22:51;100535.78;;;16.94;100.00
25722;BME280;13578;53.450;15.496;2022-09-01T16:25:53;100534.06;;;16.93;100.00
25722;BME280;13578;53.450;15.496;2022-09-01T16:28:56;100534.78;;;17.04;100.00
25722;BME280;13578;53.450;15.496;2022-09-01T16:31:57;100526.09;;;16.98;100.00